sensor_id;sensor_type;location;lat;lon;timestamp;pressure;altitude;pressure_sealevel;temperature;humidity
64792;BME280;51226;47.504;19.074;2023-02-21T00:00:59;100200.47;;;10.29;58.55
64792;BME280;51226;47.504;19.074;2023-02-21T00:04:23;100192.56;;;10.26;58.50
64792;BME280;51226;47.504;19.074;2023-02-21T00:07:44;100191.47;;;10.19;58.70
64792;BME280;51226;47.504;19.074;2023-02-21T00:11:06;100185.00;;;10.32;58.12
64792;BME280;51226;47.504;19.074;2023-02-21T00:14:27;100174.88;;;10.17;58.32
64792;BME280;51226;47.504;19.074;2023-02-21T00:17:49;100189.37;;;10.10;58.66
64792;BME280;51226;47.504;19.074;2023-02-21T00:21:11;100180.47;;;10.28;57.81
64792;BME280;51226;47.504;19.074;2023-02-21T00:24:33;100175.78;;;10.17;57.92
64792;BME280;51226;47.504;19.074;2023-02-21T00:27:54;100180.06;;;10.17;57.79
64792;BME280;51226;47.504;19.074;2023-02-21T00:31:19;100189.28;;;10.07;58.09
64792;BME280;51226;47.504;19.074;2023-02-21T00:34:40;100188.44;;;10.08;57.70
64792;BME280;51226;47.504;19.074;2023-02-21T00:38:02;100179.53;;;10.01;57.99
64792;BME280;51226;47.504;19.074;2023-02-21T00:41:27;100195.72;;;9.93;58.41
64792;BME280;51226;47.504;19.074;2023-02-21T00:44:49;100192.25;;;9.94;57.79
64792;BME280;51226;47.504;19.074;2023-02-21T00:48:10;100195.22;;;9.80;58.38
64792;BME280;51226;47.504;19.074;2023-02-21T00:51:32;100192.97;;;9.67;59.05
64792;BME280;51226;47.504;19.074;2023-02-21T00:54:53;100188.97;;;9.75;58.33
64792;BME280;51226;47.504;19.074;2023-02-21T00:58:15;100193.72;;;9.63;58.85
64792;BME280;51226;47.504;19.074;2023-02-21T01:01:36;100180.28;;;9.52;59.51
64792;BME280;51226;47.504;19.074;2023-02-21T01:04:58;100175.53;;;9.64;58.26
64792;BME280;51226;47.504;19.074;2023-02-21T01:08:19;100176.03;;;9.54;59.23
64792;BME280;51226;47.504;19.074;2023-02-21T01:11:41;100177.25;;;9.41;59.86
64792;BME280;51226;47.504;19.074;2023-02-21T01:15:03;100168.31;;;9.35;60.37
64792;BME280;51226;47.504;19.074;2023-02-21T01:18:24;100178.25;;;9.45;58.98
64792;BME280;51226;47.504;19.074;2023-02-21T01:21:46;100183.28;;;9.40;58.81
64792;BME280;51226;47.504;19.074;2023-02-21T01:25:07;100166.94;;;9.67;56.96
64792;BME280;51226;47.504;19.074;2023-02-21T01:28:33;100169.22;;;9.58;57.39
64792;BME280;51226;47.504;19.074;2023-02-21T01:31:55;100173.19;;;9.71;56.29
64792;BME280;51226;47.504;19.074;2023-02-21T01:35:17;100175.06;;;9.75;56.36
64792;BME280;51226;47.504;19.074;2023-02-21T01:38:39;100177.16;;;9.61;56.87
64792;BME280;51226;47.504;19.074;2023-02-21T01:42:01;100171.63;;;9.53;57.77
64792;BME280;51226;47.504;19.074;2023-02-21T01:48:43;100167.16;;;9.49;57.78
64792;BME280;51226;47.504;19.074;2023-02-21T01:52:06;100155.47;;;9.85;55.02
64792;BME280;51226;47.504;19.074;2023-02-21T01:55:28;100143.69;;;9.72;56.04
64792;BME280;51226;47.504;19.074;2023-02-21T01:58:52;100147.34;;;9.77;55.18
64792;BME280;51226;47.504;19.074;2023-02-21T02:02:28;100137.59;;;9.71;55.53
64792;BME280;51226;47.504;19.074;2023-02-21T02:06:12;100139.38;;;9.72;56.41
64792;BME280;51226;47.504;19.074;2023-02-21T02:09:36;100130.56;;;10.17;53.71
64792;BME280;51226;47.504;19.074;2023-02-21T02:30:14;100137.06;;;10.04;54.15
64792;BME280;51226;47.504;19.074;2023-02-21T02:36:50;100133.13;;;9.91;54.79
64792;BME280;51226;47.504;19.074;2023-02-21T02:43:27;100120.81;;;9.87;54.66
64792;BME280;51226;47.504;19.074;2023-02-21T02:46:33;100109.56;;;10.12;53.34
64792;BME280;51226;47.504;19.074;2023-02-21T02:49:41;100110.63;;;10.17;53.11
64792;BME280;51226;47.504;19.074;2023-02-21T02:52:52;100102.84;;;9.95;54.01
64792;BME280;51226;47.504;19.074;2023-02-21T02:56:04;100106.91;;;9.87;55.28
64792;BME280;51226;47.504;19.074;2023-02-21T02:59:20;100098.75;;;10.01;53.83
64792;BME280;51226;47.504;19.074;2023-02-21T03:15:17;100105.47;;;9.95;54.24
64792;BME280;51226;47.504;19.074;2023-02-21T03:21:53;100099.16;;;9.88;54.82
64792;BME280;51226;47.504;19.074;2023-02-21T03:24:59;100105.16;;;9.86;55.23
64792;BME280;51226;47.504;19.074;2023-02-21T03:28:05;100091.41;;;9.90;55.04
64792;BME280;51226;47.504;19.074;2023-02-21T03:31:09;100108.19;;;9.98;54.71
64792;BME280;51226;47.504;19.074;2023-02-21T03:34:15;100100.59;;;10.04;54.59
64792;BME280;51226;47.504;19.074;2023-02-21T03:37:42;100108.78;;;10.15;54.11
64792;BME280;51226;47.504;19.074;2023-02-21T03:40:46;100113.12;;;10.14;54.19
64792;BME280;51226;47.504;19.074;2023-02-21T03:43:48;100121.69;;;10.12;54.26
64792;BME280;51226;47.504;19.074;2023-02-21T03:46:52;100119.94;;;10.11;54.52
64792;BME280;51226;47.504;19.074;2023-02-21T03:49:56;100114.87;;;10.15;54.22
64792;BME280;51226;47.504;19.074;2023-02-21T03:52:59;100107.09;;;10.17;53.80
64792;BME280;51226;47.504;19.074;2023-02-21T03:56:02;100124.31;;;10.12;54.55
64792;BME280;51226;47.504;19.074;2023-02-21T03:59:06;100117.31;;;10.35;52.98
64792;BME280;51226;47.504;19.074;2023-02-21T04:02:09;100116.25;;;10.30;53.61
64792;BME280;51226;47.504;19.074;2023-02-21T04:05:12;100115.16;;;10.23;54.24
64792;BME280;51226;47.504;19.074;2023-02-21T04:08:15;100114.28;;;10.23;53.59
64792;BME280;51226;47.504;19.074;2023-02-21T04:11:20;100115.09;;;10.22;53.79
64792;BME280;51226;47.504;19.074;2023-02-21T04:14:24;100116.88;;;10.23;53.60
64792;BME280;51226;47.504;19.074;2023-02-21T04:17:28;100113.62;;;10.30;53.27
64792;BME280;51226;47.504;19.074;2023-02-21T04:20:31;100114.28;;;10.23;53.82
64792;BME280;51226;47.504;19.074;2023-02-21T04:23:35;100114.34;;;10.24;53.69
64792;BME280;51226;47.504;19.074;2023-02-21T04:26:38;100114.97;;;10.18;54.24
64792;BME280;51226;47.504;19.074;2023-02-21T04:29:42;100116.88;;;10.23;54.21
64792;BME280;51226;47.504;19.074;2023-02-21T04:32:45;100099.56;;;10.25;53.74
64792;BME280;51226;47.504;19.074;2023-02-21T04:35:48;100096.78;;;10.20;54.00
64792;BME280;51226;47.504;19.074;2023-02-21T04:38:53;100103.22;;;10.30;53.53
64792;BME280;51226;47.504;19.074;2023-02-21T04:41:56;100104.78;;;10.25;54.59
64792;BME280;51226;47.504;19.074;2023-02-21T04:44:59;100108.22;;;10.24;53.81
64792;BME280;51226;47.504;19.074;2023-02-21T04:48:03;100114.16;;;10.19;54.56
64792;BME280;51226;47.504;19.074;2023-02-21T04:51:05;100117.75;;;10.23;54.27
64792;BME280;51226;47.504;19.074;2023-02-21T04:54:17;100113.78;;;10.33;53.67
64792;BME280;51226;47.504;19.074;2023-02-21T04:57:19;100119.63;;;10.27;53.88
64792;BME280;51226;47.504;19.074;2023-02-21T05:00:23;100126.69;;;10.30;53.69
64792;BME280;51226;47.504;19.074;2023-02-21T05:03:25;100113.53;;;10.27;54.19
64792;BME280;51226;47.504;19.074;2023-02-21T05:06:29;100115.16;;;10.23;54.22
64792;BME280;51226;47.504;19.074;2023-02-21T05:09:32;100114.34;;;10.24;54.28
64792;BME280;51226;47.504;19.074;2023-02-21T05:12:36;100105.53;;;10.22;54.44
64792;BME280;51226;47.504;19.074;2023-02-21T05:15:41;100104.56;;;10.18;54.66
64792;BME280;51226;47.504;19.074;2023-02-21T05:18:44;100113.22;;;10.17;55.46
64792;BME280;51226;47.504;19.074;2023-02-21T05:21:47;100118.22;;;10.11;55.28
64792;BME280;51226;47.504;19.074;2023-02-21T05:24:50;100120.06;;;10.15;55.03
64792;BME280;51226;47.504;19.074;2023-02-21T05:27:53;100123.44;;;10.11;55.93
64792;BME280;51226;47.504;19.074;2023-02-21T05:30:56;100125.03;;;10.08;55.53
64792;BME280;51226;47.504;19.074;2023-02-21T05:34:02;100116.59;;;10.15;55.09
64792;BME280;51226;47.504;19.074;2023-02-21T05:37:05;100110.69;;;10.20;55.03
64792;BME280;51226;47.504;19.074;2023-02-21T05:40:13;100102.56;;;10.11;55.70
64792;BME280;51226;47.504;19.074;2023-02-21T05:43:17;100109.56;;;10.12;55.27
64792;BME280;51226;47.504;19.074;2023-02-21T05:46:24;100111.56;;;10.19;55.32
64792;BME280;51226;47.504;19.074;2023-02-21T05:49:27;100102.94;;;10.22;55.30
64792;BME280;51226;47.504;19.074;2023-02-21T05:52:30;100114.09;;;10.18;55.75
64792;BME280;51226;47.504;19.074;2023-02-21T05:55:36;100119.00;;;10.33;54.87
64792;BME280;51226;47.504;19.074;2023-02-21T05:58:39;100108.44;;;10.30;55.11
64792;BME280;51226;47.504;19.074;2023-02-21T06:01:42;100106.41;;;10.21;56.35
64792;BME280;51226;47.504;19.074;2023-02-21T06:04:45;100121.25;;;10.24;55.86
64792;BME280;51226;47.504;19.074;2023-02-21T06:07:48;100123.84;;;10.24;55.85
64792;BME280;51226;47.504;19.074;2023-02-21T06:10:51;100119.22;;;10.39;54.46
64792;BME280;51226;47.504;19.074;2023-02-21T06:13:56;100124.31;;;10.36;54.99
64792;BME280;51226;47.504;19.074;2023-02-21T06:17:00;100125.16;;;10.35;55.73
64792;BME280;51226;47.504;19.074;2023-02-21T06:20:05;100129.31;;;10.55;54.07
64792;BME280;51226;47.504;19.074;2023-02-21T06:23:08;100131.97;;;10.57;54.20
64792;BME280;51226;47.504;19.074;2023-02-21T06:26:11;100125.34;;;10.67;53.81
64792;BME280;51226;47.504;19.074;2023-02-21T06:29:14;100122.53;;;10.61;54.71
64792;BME280;51226;47.504;19.074;2023-02-21T06:32:17;100125.47;;;10.70;53.87
64792;BME280;51226;47.504;19.074;2023-02-21T06:35:20;100120.34;;;10.73;53.73
64792;BME280;51226;47.504;19.074;2023-02-21T06:38:23;100120.72;;;10.85;53.34
64792;BME280;51226;47.504;19.074;2023-02-21T06:41:28;100139.75;;;10.81;53.94
64792;BME280;51226;47.504;19.074;2023-02-21T06:44:31;100131.38;;;10.91;53.56
64792;BME280;51226;47.504;19.074;2023-02-21T06:47:34;100142.47;;;10.84;53.99
64792;BME280;51226;47.504;19.074;2023-02-21T06:50:38;100138.16;;;10.86;54.69
64792;BME280;51226;47.504;19.074;2023-02-21T06:53:41;100136.09;;;11.03;54.37
64792;BME280;51226;47.504;19.074;2023-02-21T06:56:44;100143.59;;;11.20;53.29
64792;BME280;51226;47.504;19.074;2023-02-21T06:59:47;100152.19;;;11.17;55.07
64792;BME280;51226;47.504;19.074;2023-02-21T07:02:50;100159.00;;;11.41;52.99
64792;BME280;51226;47.504;19.074;2023-02-21T07:05:53;100155.06;;;11.54;52.79
64792;BME280;51226;47.504;19.074;2023-02-21T07:08:56;100162.94;;;11.55;52.95
64792;BME280;51226;47.504;19.074;2023-02-21T07:11:59;100159.75;;;11.65;52.81
64792;BME280;51226;47.504;19.074;2023-02-21T07:15:02;100159.09;;;11.71;52.94
64792;BME280;51226;47.504;19.074;2023-02-21T07:18:05;100163.94;;;11.89;53.44
64792;BME280;51226;47.504;19.074;2023-02-21T07:21:08;100166.47;;;12.15;51.44
64792;BME280;51226;47.504;19.074;2023-02-21T07:24:12;100165.19;;;12.32;51.27
64792;BME280;51226;47.504;19.074;2023-02-21T07:27:14;100170.50;;;12.35;51.67
64792;BME280;51226;47.504;19.074;2023-02-21T07:30:18;100175.63;;;12.64;50.58
64792;BME280;51226;47.504;19.074;2023-02-21T07:33:21;100178.66;;;12.81;50.04
64792;BME280;51226;47.504;19.074;2023-02-21T07:36:24;100187.41;;;13.16;48.30
64792;BME280;51226;47.504;19.074;2023-02-21T07:39:27;100174.31;;;13.51;46.65
64792;BME280;51226;47.504;19.074;2023-02-21T07:42:29;100172.91;;;13.69;46.35
64792;BME280;51226;47.504;19.074;2023-02-21T07:45:32;100176.13;;;13.97;45.37
64792;BME280;51226;47.504;19.074;2023-02-21T07:48:35;100161.09;;;14.32;44.48
64792;BME280;51226;47.504;19.074;2023-02-21T07:51:38;100163.44;;;14.62;44.41
64792;BME280;51226;47.504;19.074;2023-02-21T07:54:41;100160.47;;;14.94;44.36
64792;BME280;51226;47.504;19.074;2023-02-21T07:57:44;100159.63;;;15.55;42.03
64792;BME280;51226;47.504;19.074;2023-02-21T08:00:48;100156.50;;;17.74;38.39
64792;BME280;51226;47.504;19.074;2023-02-21T08:03:51;100159.41;;;19.91;34.48
64792;BME280;51226;47.504;19.074;2023-02-21T08:06:58;100158.00;;;20.85;31.52
64792;BME280;51226;47.504;19.074;2023-02-21T08:10:01;100152.63;;;20.91;31.68
64792;BME280;51226;47.504;19.074;2023-02-21T08:13:03;100143.59;;;22.64;29.24
64792;BME280;51226;47.504;19.074;2023-02-21T08:16:06;100148.16;;;24.84;26.00
64792;BME280;51226;47.504;19.074;2023-02-21T08:19:09;100145.81;;;25.75;24.75
64792;BME280;51226;47.504;19.074;2023-02-21T08:22:12;100153.72;;;25.46;25.22
64792;BME280;51226;47.504;19.074;2023-02-21T08:25:16;100145.28;;;25.93;24.59
64792;BME280;51226;47.504;19.074;2023-02-21T08:28:19;100138.84;;;26.87;23.94
64792;BME280;51226;47.504;19.074;2023-02-21T08:31:21;100148.03;;;27.82;22.84
64792;BME280;51226;47.504;19.074;2023-02-21T08:34:25;100149.81;;;27.81;22.99
64792;BME280;51226;47.504;19.074;2023-02-21T08:37:31;100143.19;;;27.68;22.42
64792;BME280;51226;47.504;19.074;2023-02-21T08:40:37;100147.75;;;27.89;22.91
64792;BME280;51226;47.504;19.074;2023-02-21T08:43:40;100146.56;;;28.68;21.40
64792;BME280;51226;47.504;19.074;2023-02-21T08:46:43;100142.22;;;30.83;20.43
64792;BME280;51226;47.504;19.074;2023-02-21T08:49:47;100143.75;;;33.50;17.36
64792;BME280;51226;47.504;19.074;2023-02-21T08:52:50;100118.09;;;35.62;15.25
64792;BME280;51226;47.504;19.074;2023-02-21T08:55:53;100118.84;;;37.71;13.21
64792;BME280;51226;47.504;19.074;2023-02-21T08:58:56;100127.78;;;39.69;12.33
64792;BME280;51226;47.504;19.074;2023-02-21T09:02:01;100125.06;;;41.18;11.36
64792;BME280;51226;47.504;19.074;2023-02-21T09:05:07;100121.56;;;42.94;9.37
64792;BME280;51226;47.504;19.074;2023-02-21T09:08:10;100104.47;;;42.90;9.65
64792;BME280;51226;47.504;19.074;2023-02-21T09:11:13;100106.19;;;43.54;9.45
64792;BME280;51226;47.504;19.074;2023-02-21T09:14:16;100104.75;;;44.10;8.84
64792;BME280;51226;47.504;19.074;2023-02-21T09:17:20;100112.84;;;44.71;8.40
64792;BME280;51226;47.504;19.074;2023-02-21T09:20:25;100116.47;;;44.80;8.33
64792;BME280;51226;47.504;19.074;2023-02-21T09:23:29;100101.34;;;45.00;7.97
64792;BME280;51226;47.504;19.074;2023-02-21T09:26:33;100104.09;;;45.08;8.15
64792;BME280;51226;47.504;19.074;2023-02-21T09:29:36;100103.72;;;45.44;8.10
64792;BME280;51226;47.504;19.074;2023-02-21T09:32:47;100099.88;;;46.41;7.30
64792;BME280;51226;47.504;19.074;2023-02-21T09:35:51;100088.91;;;46.33;7.24
64792;BME280;51226;47.504;19.074;2023-02-21T09:38:55;100105.06;;;46.04;8.07
64792;BME280;51226;47.504;19.074;2023-02-21T09:42:00;100111.13;;;45.36;7.66
64792;BME280;51226;47.504;19.074;2023-02-21T09:45:03;100101.69;;;45.13;8.57
64792;BME280;51226;47.504;19.074;2023-02-21T09:48:14;100093.41;;;44.64;8.38
64792;BME280;51226;47.504;19.074;2023-02-21T09:51:17;100095.66;;;42.97;9.24
64792;BME280;51226;47.504;19.074;2023-02-21T09:54:36;100098.78;;;40.18;10.93
64792;BME280;51226;47.504;19.074;2023-02-21T09:57:40;100090.72;;;37.59;13.04
64792;BME280;51226;47.504;19.074;2023-02-21T10:00:43;100087.81;;;34.77;14.84
64792;BME280;51226;47.504;19.074;2023-02-21T10:07:40;100091.41;;;31.12;19.06
64792;BME280;51226;47.504;19.074;2023-02-21T10:10:52;100097.00;;;30.36;18.90
64792;BME280;51226;47.504;19.074;2023-02-21T10:14:14;100111.06;;;29.45;19.91
64792;BME280;51226;47.504;19.074;2023-02-21T10:20:53;100102.34;;;27.85;21.51
64792;BME280;51226;47.504;19.074;2023-02-21T10:24:01;100103.69;;;27.23;22.84
64792;BME280;51226;47.504;19.074;2023-02-21T10:27:29;100101.28;;;26.90;23.73
64792;BME280;51226;47.504;19.074;2023-02-21T10:30:35;100093.97;;;26.68;23.20
64792;BME280;51226;47.504;19.074;2023-02-21T10:33:39;100104.50;;;26.44;23.70
64792;BME280;51226;47.504;19.074;2023-02-21T10:36:42;100094.16;;;26.05;24.35
64792;BME280;51226;47.504;19.074;2023-02-21T10:39:49;100088.47;;;25.86;24.75
64792;BME280;51226;47.504;19.074;2023-02-21T10:49:58;100094.06;;;25.77;25.23
64792;BME280;51226;47.504;19.074;2023-02-21T10:53:02;100090.00;;;25.95;24.85
64792;BME280;51226;47.504;19.074;2023-02-21T10:59:26;100093.03;;;25.83;25.09
64792;BME280;51226;47.504;19.074;2023-02-21T11:02:32;100102.38;;;25.35;25.83
64792;BME280;51226;47.504;19.074;2023-02-21T11:05:37;100092.38;;;25.43;26.23
64792;BME280;51226;47.504;19.074;2023-02-21T11:08:42;100099.62;;;25.38;27.32
64792;BME280;51226;47.504;19.074;2023-02-21T11:11:45;100090.16;;;25.26;26.04
64792;BME280;51226;47.504;19.074;2023-02-21T11:18:03;100085.94;;;25.18;26.71
64792;BME280;51226;47.504;19.074;2023-02-21T11:21:17;100072.31;;;25.28;25.96
64792;BME280;51226;47.504;19.074;2023-02-21T11:24:21;100074.19;;;25.23;26.52
64792;BME280;51226;47.504;19.074;2023-02-21T11:27:25;100083.50;;;25.08;26.55
64792;BME280;51226;47.504;19.074;2023-02-21T11:30:32;100068.16;;;25.17;26.36
64792;BME280;51226;47.504;19.074;2023-02-21T11:33:38;100077.25;;;25.09;26.16
64792;BME280;51226;47.504;19.074;2023-02-21T11:36:45;100067.00;;;24.92;26.27
64792;BME280;51226;47.504;19.074;2023-02-21T11:39:50;100067.59;;;24.71;26.86
64792;BME280;51226;47.504;19.074;2023-02-21T11:43:17;100063.63;;;24.86;26.61
64792;BME280;51226;47.504;19.074;2023-02-21T11:46:43;100058.44;;;24.81;26.93
64792;BME280;51226;47.504;19.074;2023-02-21T11:53:14;100061.94;;;24.46;27.35
64792;BME280;51226;47.504;19.074;2023-02-21T11:59:45;100051.84;;;24.22;27.47
64792;BME280;51226;47.504;19.074;2023-02-21T12:13:08;100057.34;;;23.74;28.87
64792;BME280;51226;47.504;19.074;2023-02-21T12:26:19;100048.69;;;23.63;29.01
64792;BME280;51226;47.504;19.074;2023-02-21T12:29:48;100053.47;;;23.45;29.34
64792;BME280;51226;47.504;19.074;2023-02-21T12:36:12;100051.06;;;23.75;29.06
64792;BME280;51226;47.504;19.074;2023-02-21T12:46:27;100041.44;;;23.70;29.46
64792;BME280;51226;47.504;19.074;2023-02-21T12:49:41;100040.50;;;23.72;29.53
64792;BME280;51226;47.504;19.074;2023-02-21T12:53:30;100032.09;;;23.50;29.99
64792;BME280;51226;47.504;19.074;2023-02-21T12:56:43;100041.00;;;23.49;29.66
64792;BME280;51226;47.504;19.074;2023-02-21T13:00:35;100037.03;;;23.25;30.56
64792;BME280;51226;47.504;19.074;2023-02-21T13:03:35;100056.09;;;23.00;30.75
64792;BME280;51226;47.504;19.074;2023-02-21T13:06:56;100053.56;;;22.94;30.58
64792;BME280;51226;47.504;19.074;2023-02-21T13:10:16;100058.00;;;22.92;30.78
64792;BME280;51226;47.504;19.074;2023-02-21T13:13:29;100065.31;;;22.82;30.80
64792;BME280;51226;47.504;19.074;2023-02-21T13:16:33;100056.47;;;22.79;31.60
64792;BME280;51226;47.504;19.074;2023-02-21T13:19:44;100061.78;;;22.79;31.03
64792;BME280;51226;47.504;19.074;2023-02-21T13:23:07;100063.56;;;22.80;31.26
64792;BME280;51226;47.504;19.074;2023-02-21T13:29:46;100058.78;;;25.02;27.51
64792;BME280;51226;47.504;19.074;2023-02-21T13:32:57;100044.72;;;26.19;25.80
64792;BME280;51226;47.504;19.074;2023-02-21T13:36:01;100044.34;;;26.31;25.75
64792;BME280;51226;47.504;19.074;2023-02-21T13:39:21;100052.91;;;25.84;27.25
64792;BME280;51226;47.504;19.074;2023-02-21T13:42:36;100040.72;;;25.11;27.32
64792;BME280;51226;47.504;19.074;2023-02-21T13:45:40;100042.91;;;24.63;27.66
64792;BME280;51226;47.504;19.074;2023-02-21T13:48:43;100039.03;;;24.01;28.54
64792;BME280;51226;47.504;19.074;2023-02-21T13:51:50;100043.63;;;23.51;30.18
64792;BME280;51226;47.504;19.074;2023-02-21T14:08:01;100049.53;;;20.52;34.32
64792;BME280;51226;47.504;19.074;2023-02-21T14:14:29;100056.22;;;19.79;36.63
64792;BME280;51226;47.504;19.074;2023-02-21T14:17:35;100049.16;;;19.73;36.43
64792;BME280;51226;47.504;19.074;2023-02-21T14:20:38;100065.16;;;19.39;36.72
64792;BME280;51226;47.504;19.074;2023-02-21T14:23:51;100060.78;;;19.32;36.76
64792;BME280;51226;47.504;19.074;2023-02-21T14:27:03;100063.47;;;19.20;38.00
64792;BME280;51226;47.504;19.074;2023-02-21T14:33:20;100061.72;;;19.08;37.45
64792;BME280;51226;47.504;19.074;2023-02-21T14:36:24;100060.00;;;18.96;38.49
64792;BME280;51226;47.504;19.074;2023-02-21T14:39:40;100057.34;;;18.78;38.05
64792;BME280;51226;47.504;19.074;2023-02-21T15:03:56;100061.37;;;17.28;41.37
64792;BME280;51226;47.504;19.074;2023-02-21T15:07:20;100055.94;;;17.03;42.07
64792;BME280;51226;47.504;19.074;2023-02-21T15:10:31;100052.31;;;16.85;42.59
64792;BME280;51226;47.504;19.074;2023-02-21T15:13:34;100058.22;;;16.58;43.25
64792;BME280;51226;47.504;19.074;2023-02-21T15:16:42;100056.31;;;16.42;43.37
64792;BME280;51226;47.504;19.074;2023-02-21T15:19:46;100060.44;;;16.10;44.14
64792;BME280;51226;47.504;19.074;2023-02-21T15:23:21;100061.94;;;15.88;45.44
64792;BME280;51226;47.504;19.074;2023-02-21T15:26:31;100073.12;;;15.75;45.03
64792;BME280;51226;47.504;19.074;2023-02-21T15:29:36;100075.53;;;15.55;46.01
64792;BME280;51226;47.504;19.074;2023-02-21T15:32:40;100065.94;;;15.57;45.36
64792;BME280;51226;47.504;19.074;2023-02-21T15:35:57;100064.78;;;15.36;46.13
64792;BME280;51226;47.504;19.074;2023-02-21T15:39:10;100073.31;;;15.18;46.25
64792;BME280;51226;47.504;19.074;2023-02-21T15:42:16;100078.31;;;15.03;46.79
64792;BME280;51226;47.504;19.074;2023-02-21T15:45:25;100074.59;;;14.87;47.41
64792;BME280;51226;47.504;19.074;2023-02-21T15:48:29;100079.56;;;14.69;48.23
64792;BME280;51226;47.504;19.074;2023-02-21T15:51:32;100076.19;;;14.77;47.55
64792;BME280;51226;47.504;19.074;2023-02-21T15:54:39;100087.38;;;14.66;48.23
64792;BME280;51226;47.504;19.074;2023-02-21T15:57:42;100090.00;;;14.66;47.94
64792;BME280;51226;47.504;19.074;2023-02-21T16:00:47;100093.25;;;14.52;48.78
64792;BME280;51226;47.504;19.074;2023-02-21T16:07:33;100097.25;;;14.33;49.34
64792;BME280;51226;47.504;19.074;2023-02-21T16:10:39;100094.56;;;14.29;49.80
64792;BME280;51226;47.504;19.074;2023-02-21T16:13:42;100102.41;;;14.27;49.44
64792;BME280;51226;47.504;19.074;2023-02-21T16:16:47;100097.84;;;14.15;50.22
64792;BME280;51226;47.504;19.074;2023-02-21T16:20:12;100110.94;;;14.15;50.18
64792;BME280;51226;47.504;19.074;2023-02-21T16:23:24;100106.38;;;14.05;50.65
64792;BME280;51226;47.504;19.074;2023-02-21T16:26:26;100101.09;;;14.03;50.03
64792;BME280;51226;47.504;19.074;2023-02-21T16:29:30;100108.84;;;13.97;50.38
64792;BME280;51226;47.504;19.074;2023-02-21T16:32:33;100109.50;;;13.85;51.24
64792;BME280;51226;47.504;19.074;2023-02-21T16:35:37;100107.59;;;13.78;51.13
64792;BME280;51226;47.504;19.074;2023-02-21T16:38:40;100118.81;;;13.73;51.47
64792;BME280;51226;47.504;19.074;2023-02-21T16:41:43;100117.94;;;13.72;51.67
64792;BME280;51226;47.504;19.074;2023-02-21T16:44:46;100122.31;;;13.71;51.94
64792;BME280;51226;47.504;19.074;2023-02-21T16:48:01;100124.03;;;13.71;51.79
64792;BME280;51226;47.504;19.074;2023-02-21T16:51:08;100132.03;;;13.77;51.21
64792;BME280;51226;47.504;19.074;2023-02-21T16:54:16;100126.66;;;13.71;51.47
64792;BME280;51226;47.504;19.074;2023-02-21T16:57:18;100124.94;;;13.71;51.40
64792;BME280;51226;47.504;19.074;2023-02-21T17:00:22;100130.16;;;13.70;51.48
64792;BME280;51226;47.504;19.074;2023-02-21T17:03:25;100136.09;;;13.63;51.85
64792;BME280;51226;47.504;19.074;2023-02-21T17:06:30;100133.41;;;13.60;51.99
64792;BME280;51226;47.504;19.074;2023-02-21T17:09:34;100146.50;;;13.58;52.30
64792;BME280;51226;47.504;19.074;2023-02-21T17:12:41;100138.63;;;13.58;52.76
64792;BME280;51226;47.504;19.074;2023-02-21T17:15:44;100139.44;;;13.56;52.76
64792;BME280;51226;47.504;19.074;2023-02-21T17:18:49;100151.03;;;13.67;51.67
64792;BME280;51226;47.504;19.074;2023-02-21T17:21:52;100148.31;;;13.62;51.91
64792;BME280;51226;47.504;19.074;2023-02-21T17:24:55;100152.75;;;13.65;51.72
64792;BME280;51226;47.504;19.074;2023-02-21T17:27:58;100160.59;;;13.63;52.58
64792;BME280;51226;47.504;19.074;2023-02-21T17:31:02;100162.22;;;13.58;52.15
64792;BME280;51226;47.504;19.074;2023-02-21T17:34:04;100160.62;;;13.65;51.74
64792;BME280;51226;47.504;19.074;2023-02-21T17:37:08;100154.66;;;13.72;51.69
64792;BME280;51226;47.504;19.074;2023-02-21T17:40:11;100161.81;;;13.81;51.15
64792;BME280;51226;47.504;19.074;2023-02-21T17:43:15;100166.84;;;13.70;51.59
64792;BME280;51226;47.504;19.074;2023-02-21T17:46:18;100159.75;;;13.66;51.78
64792;BME280;51226;47.504;19.074;2023-02-21T17:49:26;100158.38;;;13.83;50.92
64792;BME280;51226;47.504;19.074;2023-02-21T17:52:33;100156.28;;;13.67;51.68
64792;BME280;51226;47.504;19.074;2023-02-21T17:55:40;100161.50;;;13.65;52.32
64792;BME280;51226;47.504;19.074;2023-02-21T17:58:44;100156.03;;;13.56;53.05
64792;BME280;51226;47.504;19.074;2023-02-21T18:01:47;100161.19;;;13.53;53.11
64792;BME280;51226;47.504;19.074;2023-02-21T18:04:50;100161.25;;;13.55;52.65
64792;BME280;51226;47.504;19.074;2023-02-21T18:07:53;100161.38;;;13.61;51.97
64792;BME280;51226;47.504;19.074;2023-02-21T18:10:56;100160.41;;;13.56;52.74
64792;BME280;51226;47.504;19.074;2023-02-21T18:13:59;100154.31;;;13.57;52.39
64792;BME280;51226;47.504;19.074;2023-02-21T18:17:02;100154.25;;;13.53;53.01
64792;BME280;51226;47.504;19.074;2023-02-21T18:20:06;100150.09;;;13.63;52.03
64792;BME280;51226;47.504;19.074;2023-02-21T18:23:11;100142.97;;;13.58;52.52
64792;BME280;51226;47.504;19.074;2023-02-21T18:26:15;100145.53;;;13.55;52.71
64792;BME280;51226;47.504;19.074;2023-02-21T18:29:18;100138.41;;;13.49;53.40
64792;BME280;51226;47.504;19.074;2023-02-21T18:32:22;100143.84;;;13.57;52.54
64792;BME280;51226;47.504;19.074;2023-02-21T18:35:25;100147.06;;;13.46;52.53
64792;BME280;51226;47.504;19.074;2023-02-21T18:38:28;100146.06;;;13.40;53.49
64792;BME280;51226;47.504;19.074;2023-02-21T18:41:31;100146.94;;;13.39;52.54